Terminal Aerodrome Forecast
Issued by NWS Melbourne, FL

Home | Current Version | Previous Version | Text Only | Print | Product List | Glossary On
Versions: 1 2 3 4 5 6 7 8 9 10 11 12 13 14
000
FTUS42 KMLB 180600 AAA
TAFVRB
TAF AMD
KVRB 180639Z 1807/1906 24005KT P6SM SCT008
      TEMPO 1807/1809 BKN006
     FM181300 33004KT P6SM FEW030
     FM181600 05008KT P6SM SCT030
     FM182000 09010KT P6SM SCT035 SCT120=

USA.gov is the U.S. government's official web portal to all federal, state and local government web resources and services.